Search for airport 
image banner adimage banner adimage banner ad
image banner ad

N43 - Braden Airpark

Located in Easton, United States

ICAO - N43, IATA -

Data provided by Airmate  

General information

Coordinates: N40°44'32" W75°14'35"
Elevation is 397 feet MSL.
Magnetic variation is -13° East
View others Airports in Pennsylvania

Operational data

Special qualification required
Current time UTC:
Current local time:
Weather at : KABE - Lehigh Valley Intl ( 19 km )
METAR: KABE 182251Z 25009KT 10SM CLR 26/06 A3023 RMK AO2 SLP234 T02560061
TAF: KABE 181732Z 1818/1918 25007KT P6SM FEW250 FM190000 VRB04KT P6SM SKC
View NOTAMs / SUP AIP / TFR affecting this airport [VIEW]
Communications frequencies: [VIEW]

Runways:

RWY identifierQFULength (ft)Width (ft)SurfaceLDA (ft)
18166°1956165OTHER
36346°1956165OTHER

Airport contact information

Address: Easton United States

Satellite view of N43